Wellston, Michigan
Current Conditions -  °F | °C
As of 4:35 AM on Friday 31 Oct 2014 (Local Time) from KMBL Reporting Station
Overcast Overcast  
Wind Chill:   Ceiling: 2700
Heat Index:   Visibility: 10mi
Dew Point:   Wind: 13mph
Humidity: 70%   Direction: 320°NW
Pressure: 29.93"   Gusts: 17mph
Location:  44.22°N, 85.96°W
Report Text: KMBL 310835Z AUTO 32011G15KT 10SM SCT019 BKN027 OVC033 06/01 A2993 RMK AO1
Loading
Personal Weather Stations






























Interactive Weather Map
Tropical Storm Tracking
New forecast layout! Learn more

10-Day Weather Forecast

Advertisements
Track Severe Weather on mobile